• Join FlightAware (Why Join?)
  • Login
  • US Flag 
10:20AM EDT


 

Airport Tracker/Info


-or-


 

Live Flight TrackerFlight Track Log ✈ UAL993 ✈ 12-Jul-2013 ✈ KEWR - LSZH / ZRH

Flight Track Log - Related Links

Times and Time Zones

All times are in EDT time to prevent confusion due to time zone crossing. See the UAL993 flight status page for this flight to view local times or setup timezone preferences in your user account.

Time Position Orientation Groundspeed Altitude Reporting Facility
EDT Latitude Longitude Course Direction KTS MPH feet Rate Location/Type
07:34PM 40.7158 -74.1523 26° Northeast 172 198 1,200  Level FlightAware ADS-B
07:34PM 40.7220 -74.1445 44° Northeast 192 221 1,500 1,980 Climbing FlightAware ADS-B
07:34PM 40.7378 -74.1295 36° Northeast 208 239 2,200 2,580 Climbing FlightAware ADS-B
07:34PM 40.7456 -74.1248 25° Northeast 214 246 2,800 3,420 Climbing FlightAware ADS-B
07:35PM 40.7613 -74.1163 22° Northeast 217 250 3,700 3,000 Climbing FlightAware ADS-B
07:35PM 40.7759 -74.1085 22° Northeast 230 265 4,400 2,760 Climbing FlightAware ADS-B
07:35PM 40.7911 -74.1002 22° Northeast 235 270 5,100 2,400 Climbing FlightAware ADS-B
07:35PM 40.8068 -74.0912 23° Northeast 256 295 5,600 1,980 Climbing FlightAware ADS-B
07:35PM 40.8102 -74.0887 29° Northeast 260 299 5,700 2,640 Climbing FlightAware ADS-B
07:36PM 40.8161 -74.0834 34° Northeast 257 296 6,000 3,300 Climbing FlightAware ADS-B
07:36PM 40.8189 -74.0804 39° Northeast 256 295 6,200 3,720 Climbing FlightAware ADS-B
07:36PM 40.8228 -74.0756 43° Northeast 255 293 6,500 3,600 Climbing FlightAware ADS-B
07:36PM 40.8266 -74.0699 49° Northeast 253 291 6,800 3,720 Climbing FlightAware ADS-B
07:36PM 40.8292 -74.0653 53° Northeast 252 290 7,000 3,720 Climbing FlightAware ADS-B
07:36PM 40.8317 -74.0588 63° Northeast 254 292 7,300 2,460 Climbing FlightAware ADS-B
07:36PM 40.8341 -74.0493 72° East 256 295 7,500 2,700 Climbing FlightAware ADS-B
07:36PM 40.8348 -74.0281 87° East 259 298 8,200 3,180 Climbing FlightAware ADS-B
07:36PM 40.8346 -74.0256 96° East 259 298 8,300 3,300 Climbing FlightAware ADS-B
07:36PM 40.8341 -74.0135 93° East 262 302 8,700 3,180 Climbing FlightAware ADS-B
07:36PM 40.8336 -74.0038 94° East 263 303 9,000 2,700 Climbing FlightAware ADS-B
07:37PM 40.8332 -73.9971 95° East 264 304 9,200 2,460 Climbing FlightAware ADS-B
07:37PM 40.8324 -73.9842 95° East 273 314 9,500 2,160 Climbing FlightAware ADS-B
07:37PM 40.8311 -73.9645 95° East 276 318 9,900 840 Climbing FlightAware ADS-B
07:37PM 40.8291 -73.9345 95° East 311 358 9,900  Level FlightAware ADS-B
07:37PM 40.8282 -73.9221 95° East 303 349 9,900 360 Level FlightAware ADS-B
07:38PM 40.8450 -73.8450 74° East 348 400 10,200 1,380 Climbing FlightAware
07:39PM 40.8940 -73.7780 46° Northeast 374 430 11,800 2,460 Climbing FlightAware
07:39PM 40.9510 -73.7050 44° Northeast 391 450 13,800 2,760 Climbing FlightAware
07:40PM 41.0030 -73.6370 45° Northeast 400 460 15,700 2,520 Climbing FlightAware
07:41PM 41.0530 -73.5680 46° Northeast 415 478 17,200 2,220 Climbing FlightAware
07:41PM 41.0925 -73.5054 50° Northeast 428 493 18,300 2,100 Climbing FlightAware ADS-B
07:43PM 41.1993 -73.3206 52° Northeast 452 520 21,300 1,620 Climbing FlightAware ADS-B
07:44PM 41.2650 -73.2070 52° Northeast 451 519 22,200 1,980 Climbing FlightAware
07:45PM 41.3420 -73.0710 53° Northeast 471 542 25,100 1,920 Climbing FlightAware
07:45PM 41.4150 -72.9460 52° Northeast 480 552 25,800 1,380 Climbing FlightAware
07:46PM 41.4740 -72.8410 53° Northeast 499 574 27,400 2,040 Climbing FlightAware
07:47PM 41.5250 -72.7530 52° Northeast 501 577 28,400 1,860 Climbing FlightAware
07:47PM 41.5790 -72.6650 51° Northeast 498 573 29,700 960 Climbing FlightAware
07:48PM 41.6310 -72.5860 49° Northeast 498 573 29,700 1,260 Level FlightAware
07:49PM 41.7250 -72.4430 49° Northeast 497 572 31,800 1,260 Climbing FlightAware
07:50PM 41.7730 -72.3710 48° Northeast 497 572 31,800  Level FlightAware
07:50PM 41.8360 -72.2770 48° Northeast 497 572 31,800  Level FlightAware
07:51PM 41.8830 -72.2070 48° Northeast 497 572 31,800 2,400 Level FlightAware
07:52PM 41.9730 -72.0640 50° Northeast 495 570 35,000 2,160 Climbing FlightAware
07:52PM 42.0460 -71.9510 49° Northeast 492 566 35,000  Level FlightAware
07:53PM 42.1120 -71.8490 49° Northeast 492 566 35,000  Level FlightAware
07:54PM 42.1700 -71.7590 49° Northeast 491 565 35,000  Level FlightAware
07:55PM 42.2310 -71.6640 49° Northeast 492 566 35,000  Level FlightAware
07:55PM 42.2970 -71.5600 49° Northeast 490 564 35,000  Level FlightAware
07:56PM 42.3490 -71.4790 49° Northeast 489 563 35,000  Level FlightAware
07:57PM 42.4080 -71.3860 49° Northeast 490 564 35,000  Level FlightAware
07:57PM 42.4740 -71.2810 50° Northeast 485 558 35,000  Level FlightAware
07:58PM 42.5320 -71.1900 49° Northeast 485 558 35,000  Level FlightAware
07:59PM 42.5920 -71.0940 50° Northeast 485 558 35,000  Level FlightAware
07:59PM 42.6590 -70.9870 50° Northeast 486 559 35,000  Level FlightAware
08:00PM 42.7160 -70.8960 50° Northeast 487 560 35,000  Level FlightAware
08:01PM 42.7820 -70.7890 50° Northeast 488 562 35,000  Level FlightAware
08:01PM 42.8410 -70.6940 50° Northeast 488 562 35,000  Level FlightAware
08:02PM 42.9280 -70.5530 50° Northeast 495 570 35,000  Level FlightAware
08:03PM 42.9880 -70.4550 50° Northeast 496 571 35,000  Level FlightAware
08:04PM 43.0560 -70.3450 50° Northeast 496 571 35,000  Level FlightAware
08:05PM 43.1100 -70.2560 50° Northeast 495 570 35,000  Level FlightAware
08:05PM 43.1790 -70.1430 50° Northeast 497 572 35,000  Level FlightAware
08:06PM 43.2520 -70.0220 50° Northeast 492 566 35,000  Level FlightAware
08:07PM 43.3200 -69.9100 50° Northeast 497 572 35,000  Level FlightAware
08:08PM 43.3710 -69.8260 50° Northeast 497 572 35,000  Level FlightAware
08:08PM 43.4330 -69.7250 50° Northeast 497 572 35,000  Level FlightAware
08:09PM 43.5050 -69.6010 51° Northeast 491 565 35,000  Level FlightAware
08:10PM 43.5750 -69.4830 51° Northeast 491 565 35,000  Level FlightAware
08:11PM 43.6590 -69.3410 51° Northeast 491 565 35,000  Level FlightAware
08:12PM 43.7260 -69.2280 51° Northeast 489 563 35,000  Level FlightAware
08:12PM 43.8000 -69.1020 51° Northeast 488 562 35,000  Level FlightAware
08:13PM 43.8670 -68.9880 51° Northeast 492 566 35,000  Level FlightAware
08:14PM 43.9100 -68.9130 51° Northeast 492 566 35,000  Level FlightAware
08:15PM 43.9690 -68.8130 51° Northeast 492 566 35,000  Level FlightAware
08:15PM 44.0130 -68.7380 51° Northeast 492 566 35,000  Level FlightAware
08:16PM 44.0840 -68.6130 52° Northeast 492 566 35,000  Level FlightAware
08:17PM 44.1610 -68.4800 51° Northeast 493 567 35,000  Level FlightAware
08:17PM 44.2200 -68.3760 52° Northeast 493 567 35,000  Level FlightAware
08:18PM 44.2790 -68.2730 51° Northeast 494 568 35,000  Level FlightAware
08:19PM 44.3390 -68.1680 51° Northeast 494 568 35,000  Level FlightAware
08:19PM 44.3990 -68.0610 52° Northeast 495 570 35,000  Level FlightAware
08:20PM 44.4600 -67.9530 52° Northeast 496 571 35,000  Level FlightAware
08:21PM 44.5060 -67.8720 51° Northeast 496 571 35,000  Level FlightAware
08:21PM 44.5680 -67.7600 52° Northeast 497 572 35,000  Level FlightAware
08:22PM 44.6240 -67.6600 52° Northeast 497 572 35,000  Level FlightAware
08:23PM 44.6760 -67.5680 52° Northeast 498 573 35,000  Level FlightAware
08:23PM 44.7350 -67.4600 52° Northeast 499 574 35,000  Level FlightAware
08:24PM 44.8050 -67.3330 52° Northeast 499 574 35,000  Level FlightAware
08:25PM 44.8700 -67.2150 52° Northeast 500 575 35,000  Level FlightAware
08:26PM 44.9410 -67.1110 46° Northeast 494 568 35,000  Level FlightAware
08:26PM 45.0110 -67.0280 40° Northeast 486 559 35,000  Level FlightAware
08:27PM 45.0900 -66.9350 40° Northeast 486 559 35,000  Level FlightAware
08:28PM 45.1440 -66.8720 39° Northeast 487 560 35,000  Level FlightAware
08:28PM 45.2130 -66.7910 40° Northeast 487 560 35,000  Level FlightAware
08:29PM 45.2930 -66.6950 40° Northeast 487 560 35,000  Level FlightAware
08:30PM 45.3620 -66.6130 40° Northeast 488 562 35,000  Level FlightAware
08:31PM 45.4390 -66.5200 40° Northeast 488 562 35,000  Level FlightAware
08:31PM 45.5120 -66.4320 40° Northeast 488 562 35,000  Level FlightAware
08:32PM 45.5880 -66.3410 40° Northeast 489 563 35,000  Level FlightAware
08:33PM 45.6590 -66.2550 40° Northeast 487 560 35,000  Level FlightAware
08:33PM 45.7270 -66.1720 40° Northeast 488 562 35,000  Level FlightAware
08:34PM 45.8060 -66.0750 41° Northeast 487 560 35,000 -420 Level FlightAware
08:35PM 45.8750 -65.9910 40° Northeast 491 565 34,400 -1,020 Descending FlightAware
08:35PM 45.9420 -65.9080 41° Northeast 490 564 33,700 -1,080 Descending FlightAware
08:36PM 46.0130 -65.8220 40° Northeast 490 564 33,000 -540 Descending FlightAware
08:37PM 46.0860 -65.7310 41° Northeast 485 558 33,000  Level FlightAware
08:38PM 46.1580 -65.6440 40° Northeast 485 558 33,000  Level FlightAware
08:38PM 46.2310 -65.5520 41° Northeast 489 563 33,000  Level FlightAware
08:39PM 46.2840 -65.4880 40° Northeast 489 563 33,000  Level FlightAware
08:40PM 46.3550 -65.4020 40° Northeast 489 563 33,000  Level FlightAware
08:40PM 46.4080 -65.3380 40° Northeast 489 563 33,000  Level FlightAware
08:41PM 46.4780 -65.2520 40° Northeast 489 563 33,000  Level FlightAware
08:42PM 46.5310 -65.1870 40° Northeast 489 563 33,000  Level FlightAware
08:42PM 46.6020 -65.1010 40° Northeast 489 563 33,000  Level FlightAware
08:43PM 46.6550 -65.0360 40° Northeast 489 563 33,000  Level FlightAware
08:44PM 46.7260 -64.9490 40° Northeast 489 563 33,000  Level FlightAware
08:45PM 46.7980 -64.8610 40° Northeast 489 563 33,000  Level FlightAware
08:45PM 46.8520 -64.7940 40° Northeast 489 563 33,000  Level FlightAware
08:46PM 46.9230 -64.7070 40° Northeast 489 563 33,000  Level FlightAware
08:47PM 46.9780 -64.6400 40° Northeast 489 563 33,000  Level FlightAware
08:47PM 47.0340 -64.5710 40° Northeast 489 563 33,000  Level FlightAware
08:48PM 47.2500 -64.2167 40° Northeast 500 575 33,000  Level Gander Center
08:49PM 47.3000 -64.1500 42° Northeast 500 575 33,000  Level Moncton Center
08:50PM 47.4167 -64.0000 41° Northeast 510 587 33,000  Level Moncton Center
08:51PM 47.5167 -63.8500 45° Northeast 510 587 33,000  Level Moncton Center
08:52PM 47.6333 -63.7333 34° Northeast 510 587 33,000  Level Moncton Center
08:53PM 47.7333 -63.5833 45° Northeast 510 587 33,000  Level Moncton Center
08:54PM 47.8333 -63.4167 48° Northeast 510 587 33,000  Level Moncton Center
08:55PM 47.9500 -63.3000 34° Northeast 510 587 33,000  Level Moncton Center
08:56PM 48.0500 -63.1500 45° Northeast 510 587 33,000  Level Moncton Center
08:57PM 48.1500 -63.0000 45° Northeast 510 587 33,000  Level Moncton Center
08:58PM 48.2667 -62.8667 37° Northeast 520 598 33,000  Level Moncton Center
08:59PM 48.3500 -62.7167 50° Northeast 510 587 33,000  Level Moncton Center
09:00PM 48.4500 -62.5833 41° Northeast 510 587 33,000  Level Moncton Center
09:01PM 48.5667 -62.4000 46° Northeast 510 587 33,000  Level Moncton Center
09:02PM 48.6667 -62.2667 41° Northeast 500 575 33,000  Level Moncton Center
09:03PM 48.7667 -62.1167 45° Northeast 500 575 33,000  Level Moncton Center
09:04PM 48.8667 -61.9833 41° Northeast 490 564 33,000  Level Moncton Center
09:05PM 48.9667 -61.8500 41° Northeast 490 564 33,000  Level Moncton Center
09:06PM 49.0667 -61.6833 47° Northeast 510 587 33,000 420 Level Moncton Center
09:07PM 49.1667 -61.5500 41° Northeast 480 552 33,900 480 Climbing Moncton Center
09:08PM 49.2667 -61.4000 44° Northeast 500 575 34,000  Climbing Moncton Center
09:09PM 49.3667 -61.2667 41° Northeast 500 575 34,000  Level Moncton Center
09:10PM 49.4667 -61.1000 47° Northeast 500 575 34,000  Level Moncton Center
09:11PM 49.5667 -60.9333 47° Northeast 500 575 34,000  Level Moncton Center
09:12PM 49.6667 -60.8000 41° Northeast 490 564 34,000  Level Moncton Center
09:13PM 49.7667 -60.6333 47° Northeast 500 575 34,000  Level Moncton Center
09:14PM 49.8667 -60.5000 41° Northeast 500 575 34,000 60 Level Moncton Center
09:15PM 49.9500 -60.3667 46° Northeast 500 575 34,200 540 Climbing Moncton Center
09:16PM 50.0667 -60.2000 42° Northeast 510 587 35,100 1,260 Climbing Moncton Center
09:17PM 50.1667 -60.0333 47° Northeast 520 598 36,800 900 Climbing Moncton Center
09:18PM 50.2667 -59.8667 47° Northeast 500 575 37,000 60 Climbing Moncton Center
09:19PM 50.3667 -59.7167 44° Northeast 510 587 37,000  Level Moncton Center
09:20PM 50.4667 -59.5500 47° Northeast 510 587 37,000  Level Moncton Center
09:21PM 50.5667 -59.3833 47° Northeast 510 587 37,000  Level Moncton Center
09:22PM 50.6667 -59.2500 40° Northeast 510 587 37,000  Level Moncton Center
09:23PM 50.7667 -59.0833 46° Northeast 500 575 37,000  Level Moncton Center
09:24PM 50.8500 -58.9333 49° Northeast 490 564 37,000  Level Moncton Center
09:25PM 50.9500 -58.7833 43° Northeast 490 564 37,000  Level Moncton Center
09:26PM 51.0333 -58.6167 51° Northeast 490 564 37,000  Level Moncton Center
09:27PM 51.1333 -58.4667 43° Northeast 490 564 37,000  Level Moncton Center
09:28PM 51.2500 -58.3000 42° Northeast 490 564 37,000  Level Moncton Center
09:29PM 51.3333 -58.1500 48° Northeast 500 575 37,000  Level Moncton Center
09:30PM 51.4333 -57.9833 46° Northeast 500 575 37,000  Level Moncton Center
09:31PM 51.5167 -57.8333 48° Northeast 500 575 37,000  Level Moncton Center
09:32PM 51.6333 -57.6500 44° Northeast 500 575 37,000  Level Moncton Center
09:33PM 51.7167 -57.4833 51° Northeast 510 587 37,000  Level Moncton Center
09:34PM 51.8167 -57.3000 49° Northeast 510 587 37,000  Level Moncton Center
09:35PM 51.9000 -57.1500 48° Northeast 510 587 37,000  Level Moncton Center
09:36PM 52.0167 -57.0000 38° Northeast 510 587 37,000  Level Moncton Center
09:37PM 52.1000 -56.8167 53° Northeast 520 598 37,000  Level Moncton Center
09:38PM 52.1833 -56.6333 53° Northeast 510 587 37,000  Level Moncton Center
09:39PM 52.2833 -56.4667 46° Northeast 510 587 37,000  Level Moncton Center
09:40PM 52.3500 -56.2500 63° Northeast 520 598 37,000  Level Moncton Center
09:41PM 52.4167 -56.0500 61° Northeast 510 587 37,000  Level Moncton Center
09:42PM 52.4833 -55.8500 61° Northeast 510 587 37,000  Level Moncton Center
09:43PM 52.5500 -55.6333 63° Northeast 510 587 37,000  Level Moncton Center
09:44PM 52.6167 -55.4333 61° Northeast 510 587 37,000  Level Moncton Center
09:45PM 52.7000 -55.2167 58° Northeast 510 587 37,000  Level Moncton Center
09:46PM 52.7667 -55.0167 61° Northeast 520 598 37,000  Level Moncton Center
09:47PM 52.8333 -54.8000 63° Northeast 530 610 37,000  Level Moncton Center
09:48PM 52.9000 -54.6000 61° Northeast 530 610 37,000  Level Moncton Center
09:49PM 52.9667 -54.3833 63° Northeast 530 610 37,000  Level Moncton Center
09:50PM 53.0333 -54.1667 63° Northeast 530 610 37,000  Level Moncton Center
09:51PM 53.1167 -53.8667 65° Northeast 530 610 37,000  Level Gander Center
09:52PM 53.1667 -53.6000 73° East 540 621 37,000  Level Gander Center
09:53PM 53.2167 -53.3667 70° East 540 621 37,000  Level Gander Center
09:54PM 53.2667 -53.1333 70° East 550 633 37,000  Level Gander Center
09:55PM 53.3333 -52.8667 67° East 560 644 37,000  Level Gander Center
09:56PM 53.3833 -52.6333 70° East 570 656 37,000  Level Gander Center
09:57PM 53.4333 -52.3667 72° East 570 656 37,000  Level Gander Center
09:58PM 53.5000 -52.1333 64° Northeast 580 667 37,000  Level Gander Center
09:59PM 53.5667 -51.8667 67° East 580 667 37,000  Level Gander Center
10:00PM 53.6167 -51.6167 71° East 580 667 37,000  Level Gander Center
10:01PM 53.6667 -51.3667 71° East 580 667 37,000  Level Gander Center
10:02PM 53.7000 -51.1167 77° East 570 656 37,000  Level Gander Center
10:03PM 53.7667 -50.8500 67° East 570 656 37,000  Level Gander Center
10:04PM 53.8333 -50.6000 66° East 570 656 37,000  Level Gander Center
10:05PM 53.8833 -50.3667 70° East 560 644 37,000  Level Gander Center
10:06PM 53.9333 -50.1167 71° East 560 644 37,000  Level Gander Center
10:07PM 53.9667 -49.8500 78° East 560 644 37,000  Level Gander Center
10:09PM 54.0169 -49.5316 75° East  Level FlightAware Approximate
10:16PM 54.2450 -48.0016 75° East  Level FlightAware Approximate
10:17PM 54.2760 -47.7817 76° East  Level FlightAware Approximate
10:18PM 54.3066 -47.5615 77° East  Level FlightAware Approximate
10:19PM 54.3368 -47.3409 77° East  Level FlightAware Approximate
10:20PM 54.3666 -47.1200 77° East  Level FlightAware Approximate
10:21PM 54.3960 -46.8988 77° East  Level FlightAware Approximate
10:22PM 54.4250 -46.6772 77° East  Level FlightAware Approximate
10:23PM 54.4531 -46.4550 79° East  Level FlightAware Approximate
10:24PM 54.4776 -46.2315 79° East  Level FlightAware Approximate
10:25PM 54.5016 -46.0078 79° East  Level FlightAware Approximate
10:26PM 54.5252 -45.7838 80° East  Level FlightAware Approximate
10:27PM 54.5484 -45.5596 80° East  Level FlightAware Approximate
10:28PM 54.5712 -45.3351 80° East  Level FlightAware Approximate
10:29PM 54.5936 -45.1104 80° East  Level FlightAware Approximate
10:30PM 54.6156 -44.8854 80° East  Level FlightAware Approximate
10:31PM 54.6370 -44.6602 81° East  Level FlightAware Approximate
10:32PM 54.6572 -44.4345 81° East  Level FlightAware Approximate
10:33PM 54.6771 -44.2086 81° East  Level FlightAware Approximate
10:34PM 54.6965 -43.9825 81° East  Level FlightAware Approximate
10:35PM 54.7155 -43.7561 82° East  Level FlightAware Approximate
10:36PM 54.7340 -43.5296 82° East  Level FlightAware Approximate
10:37PM 54.7522 -43.3028 82° East  Level FlightAware Approximate
10:38PM 54.7699 -43.0759 82° East  Level FlightAware Approximate
10:39PM 54.7878 -42.8489 81° East  Level FlightAware Approximate
10:40PM 54.8072 -42.6221 81° East  Level FlightAware Approximate
10:41PM 54.8262 -42.3952 82° East  Level FlightAware Approximate
10:42PM 54.8448 -42.1680 82° East  Level FlightAware Approximate
10:43PM 54.8629 -41.9406 82° East  Level FlightAware Approximate
10:44PM 54.8806 -41.7130 82° East  Level FlightAware Approximate
10:45PM 54.8979 -41.4852 82° East  Level FlightAware Approximate
10:46PM 54.9148 -41.2573 83° East  Level FlightAware Approximate
10:47PM 54.9313 -41.0291 83° East  Level FlightAware Approximate
10:48PM 54.9473 -40.8008 83° East  Level FlightAware Approximate
10:49PM 54.9629 -40.5723 83° East  Level FlightAware Approximate
10:50PM 54.9781 -40.3436 83° East  Level FlightAware Approximate
10:51PM 54.9928 -40.1147 84° East  Level FlightAware Approximate
10:52PM 54.9934 -39.8856 96° East  Level FlightAware Approximate
10:53PM 54.9799 -39.6565 96° East  Level FlightAware Approximate
10:54PM 54.9660 -39.4275 96° East  Level FlightAware Approximate
10:55PM 54.9517 -39.1987 96° East  Level FlightAware Approximate
10:56PM 54.9369 -38.9701 96° East  Level FlightAware Approximate
10:57PM 54.9217 -38.7417 97° East  Level FlightAware Approximate
10:58PM 54.9060 -38.5134 97° East  Level FlightAware Approximate
10:59PM 54.8900 -38.2853 97° East  Level FlightAware Approximate
11:00PM 54.8735 -38.0574 97° East  Level FlightAware Approximate
11:01PM 54.8566 -37.8297 97° East  Level FlightAware Approximate
11:02PM 54.8392 -37.6021 97° East  Level FlightAware Approximate
11:03PM 54.8215 -37.3748 98° East  Level FlightAware Approximate
11:04PM 54.8033 -37.1477 98° East  Level FlightAware Approximate
11:05PM 54.7846 -36.9207 98° East  Level FlightAware Approximate
11:06PM 54.7656 -36.6940 98° East  Level FlightAware Approximate
11:07PM 54.7462 -36.4675 98° East  Level FlightAware Approximate
11:08PM 54.7263 -36.2412 99° East  Level FlightAware Approximate
11:09PM 54.7060 -36.0152 99° East  Level FlightAware Approximate
11:10PM 54.6852 -35.7894 99° East  Level FlightAware Approximate
11:11PM 54.6641 -35.5638 99° East  Level FlightAware Approximate
11:12PM 54.6426 -35.3384 99° East  Level FlightAware Approximate
11:13PM 54.6206 -35.1133 99° East  Level FlightAware Approximate
11:14PM 54.5982 -34.8884 100° East  Level FlightAware Approximate
11:15PM 54.5754 -34.6638 100° East  Level FlightAware Approximate
11:16PM 54.5521 -34.4394 100° East  Level FlightAware Approximate
11:17PM 54.5285 -34.2153 100° East  Level FlightAware Approximate
11:18PM 54.5044 -33.9915 100° East  Level FlightAware Approximate
11:19PM 54.4800 -33.7679 101° East  Level FlightAware Approximate
11:20PM 54.4551 -33.5446 101° East  Level FlightAware Approximate
11:21PM 54.4298 -33.3216 101° East  Level FlightAware Approximate
11:22PM 54.4041 -33.0988 101° East  Level FlightAware Approximate
11:23PM 54.3780 -32.8763 101° East  Level FlightAware Approximate
11:24PM 54.3514 -32.6541 101° East  Level FlightAware Approximate
11:25PM 54.3245 -32.4322 102° East  Level FlightAware Approximate
11:26PM 54.2972 -32.2106 102° East  Level FlightAware Approximate
11:27PM 54.2694 -31.9893 102° East  Level FlightAware Approximate
11:28PM 54.2413 -31.7683 102° East  Level FlightAware Approximate
11:29PM 54.2127 -31.5476 102° East  Level FlightAware Approximate
11:30PM 54.1840 -31.3288 103° East  Level FlightAware Approximate
11:31PM 54.1549 -31.1104 103° East  Level FlightAware Approximate
11:32PM 54.1254 -30.8923 103° East  Level FlightAware Approximate
11:33PM 54.0954 -30.6745 103° East  Level FlightAware Approximate
11:34PM 54.0651 -30.4571 103° East  Level FlightAware Approximate
11:35PM 54.0344 -30.2399 103° East  Level FlightAware Approximate
11:36PM 54.0033 -30.0231 104° East  Level FlightAware Approximate
11:37PM 54.0081 -29.8011 86° East  Level FlightAware Approximate
11:38PM 54.0168 -29.5784 86° East  Level FlightAware Approximate
11:39PM 54.0251 -29.3557 86° East  Level FlightAware Approximate
11:40PM 54.0329 -29.1328 86° East  Level FlightAware Approximate
11:41PM 54.0404 -28.9099 87° East  Level FlightAware Approximate
11:42PM 54.0474 -28.6869 87° East  Level FlightAware Approximate
11:43PM 54.0540 -28.4638 87° East  Level FlightAware Approximate
11:44PM 54.0602 -28.2407 87° East  Level FlightAware Approximate
11:45PM 54.0661 -28.0174 87° East  Level FlightAware Approximate
11:46PM 54.0714 -27.7941 88° East  Level FlightAware Approximate
11:47PM 54.0764 -27.5708 88° East  Level FlightAware Approximate
11:48PM 54.0810 -27.3474 88° East  Level FlightAware Approximate
11:49PM 54.0851 -27.1240 88° East  Level FlightAware Approximate
11:50PM 54.0888 -26.9005 88° East  Level FlightAware Approximate
11:51PM 54.0922 -26.6770 88° East  Level FlightAware Approximate
11:52PM 54.0951 -26.4535 89° East  Level FlightAware Approximate
11:53PM 54.0975 -26.2299 89° East  Level FlightAware Approximate
11:54PM 54.0996 -26.0063 89° East  Level FlightAware Approximate
11:55PM 54.1013 -25.7827 89° East  Level FlightAware Approximate
11:56PM 54.1025 -25.5591 89° East  Level FlightAware Approximate
11:57PM 54.1034 -25.3354 90° East  Level FlightAware Approximate
11:58PM 54.1038 -25.1118 90° East  Level FlightAware Approximate
11:59PM 54.1038 -24.8881 90° East  Level FlightAware Approximate
12:00AM 54.1034 -24.6645 90° East  Level FlightAware Approximate
12:01AM 54.1025 -24.4408 90° East  Level FlightAware Approximate
12:02AM 54.1013 -24.2172 90° East  Level FlightAware Approximate
12:03AM 54.0996 -23.9936 91° East  Level FlightAware Approximate
12:04AM 54.0975 -23.7700 91° East  Level FlightAware Approximate
12:05AM 54.0951 -23.5464 91° East  Level FlightAware Approximate
12:06AM 54.0922 -23.3228 91° East  Level FlightAware Approximate
12:07AM 54.0888 -23.0993 91° East  Level FlightAware Approximate
12:08AM 54.0851 -22.8759 92° East  Level FlightAware Approximate
12:09AM 54.0810 -22.6524 92° East  Level FlightAware Approximate
12:10AM 54.0764 -22.4291 92° East  Level FlightAware Approximate
12:11AM 54.0714 -22.2057 92° East  Level FlightAware Approximate
12:12AM 54.0661 -21.9824 92° East  Level FlightAware Approximate
12:13AM 54.0602 -21.7592 92° East  Level FlightAware Approximate
12:14AM 54.0540 -21.5361 93° East  Level FlightAware Approximate
12:15AM 54.0474 -21.3130 93° East  Level FlightAware Approximate
12:16AM 54.0404 -21.0900 93° East  Level FlightAware Approximate
12:17AM 54.0329 -20.8671 93° East  Level FlightAware Approximate
12:18AM 54.0251 -20.6447 93° East  Level FlightAware Approximate
12:19AM 54.0168 -20.4224 94° East  Level FlightAware Approximate
12:20AM 54.0082 -20.2003 94° East  Level FlightAware Approximate
12:21AM 53.9987 -19.9782 96° East  Level FlightAware Approximate
12:22AM 53.9855 -19.7568 96° East  Level FlightAware Approximate
12:23AM 53.9719 -19.5355 96° East  Level FlightAware Approximate
12:24AM 53.9578 -19.3144 96° East  Level FlightAware Approximate
12:25AM 53.9434 -19.0934 96° East  Level FlightAware Approximate
12:26AM 53.9286 -18.8726 96° East  Level FlightAware Approximate
12:27AM 53.9133 -18.6519 97° East  Level FlightAware Approximate
12:28AM 53.8977 -18.4314 97° East  Level FlightAware Approximate
12:29AM 53.8816 -18.2111 97° East  Level FlightAware Approximate
12:30AM 53.8652 -17.9909 97° East  Level FlightAware Approximate
12:31AM 53.8483 -17.7710 97° East  Level FlightAware Approximate
12:32AM 53.8310 -17.5512 97° East  Level FlightAware Approximate
12:33AM 53.8134 -17.3316 98° East  Level FlightAware Approximate
12:34AM 53.7953 -17.1121 98° East  Level FlightAware Approximate
12:35AM 53.7768 -16.8929 98° East  Level FlightAware Approximate
12:36AM 53.7580 -16.6738 98° East  Level FlightAware Approximate
12:37AM 53.7387 -16.4550 98° East  Level FlightAware Approximate
12:38AM 53.7191 -16.2363 99° East  Level FlightAware Approximate
12:39AM 53.6990 -16.0179 99° East  Level FlightAware Approximate
12:40AM 53.6785 -15.7997 99° East  Level FlightAware Approximate
12:41AM 53.6577 -15.5817 99° East  Level FlightAware Approximate
12:41AM 53.9410 -14.6170 99° East 446 513 37,000  Level FlightAware
12:42AM 53.6364 -15.3639 99° East  Level FlightAware Approximate
12:42AM 53.9210 -14.4830 104° East 444 511 37,000  Level FlightAware
12:42AM 53.8970 -14.3320 105° East 445 512 37,000  Level FlightAware
12:44AM 53.8630 -14.1200 105° East 445 512 37,000  Level FlightAware
12:44AM 53.8450 -14.0060 105° East 445 512 37,000  Level FlightAware
12:45AM 53.8190 -13.8460 105° East 446 513 37,000  Level FlightAware
12:46AM 53.7880 -13.6500 105° East 446 513 37,000  Level FlightAware
12:46AM 53.7660 -13.5220 106° East 447 514 37,000  Level FlightAware
12:47AM 53.7430 -13.3830 106° East 449 517 37,000  Level FlightAware
12:48AM 53.7200 -13.2510 106° East 449 517 37,000  Level FlightAware
12:48AM 53.6970 -13.1150 106° East 450 518 37,000  Level FlightAware
12:50AM 53.6660 -12.9260 105° East 451 519 37,000  Level FlightAware
12:50AM 53.6400 -12.7800 107° East 454 522 37,000  Level FlightAware
12:51AM 53.6130 -12.6270 107° East 456 525 37,000  Level FlightAware
12:51AM 53.5920 -12.5070 106° East 456 525 37,000  Level FlightAware
12:52AM 53.5680 -12.3670 106° East 456 525 37,000  Level FlightAware
12:53AM 53.5410 -12.2170 107° East 456 525 37,000  Level FlightAware
12:54AM 53.5200 -12.0970 106° East 454 522 37,000  Level FlightAware
12:54AM 53.4960 -11.9630 107° East 453 521 37,000  Level FlightAware
12:55AM 53.4720 -11.8310 107° East 452 520 37,000  Level FlightAware
12:55AM 53.4470 -11.6950 107° East 452 520 37,000  Level FlightAware
12:56AM 53.4200 -11.5480 107° East 451 519 37,000  Level FlightAware
12:57AM 53.3940 -11.4120 108° East 450 518 37,000  Level FlightAware
12:58AM 53.3690 -11.2770 107° East 447 514 37,000  Level FlightAware
12:58AM 53.3410 -11.1260 107° East 447 514 37,000  Level FlightAware
12:59AM 53.3220 -11.0280 108° East 448 516 37,000  Level FlightAware
01:00AM 53.2940 -10.8810 108° East 448 516 37,000  Level FlightAware
01:00AM 53.2650 -10.7300 108° East 450 518 37,000  Level FlightAware
01:01AM 53.2460 -10.6330 108° East 452 520 37,000  Level FlightAware
01:02AM 53.2160 -10.4820 108° East 452 520 37,000  Level FlightAware
01:02AM 53.1900 -10.3490 108° East 452 520 37,000  Level FlightAware
01:03AM 53.1640 -10.2140 108° East 456 525 37,000  Level FlightAware
01:04AM 53.1400 -10.0960 109° East 457 526 37,000  Level FlightAware
01:04AM 53.1100 -9.9480 109° East 457 526 37,000  Level FlightAware
01:05AM 53.0830 -9.8130 108° East 457 526 37,000  Level FlightAware
01:06AM 53.0530 -9.6640 108° East 459 528 37,000  Level FlightAware
01:06AM 53.0250 -9.5290 109° East 460 529 37,000  Level FlightAware
01:07AM 52.9950 -9.3800 108° East 462 532 37,000  Level FlightAware
01:08AM 52.9700 -9.2620 109° East 459 528 37,000  Level FlightAware
01:08AM 52.9430 -9.1300 109° East 461 531 37,000  Level FlightAware
01:09AM 52.9140 -8.9930 109° East 462 532 37,000  Level FlightAware
01:09AM 52.9127 -8.9873 109° East 440 506 37,000  Level FlightAware UK
01:10AM 52.8913 -8.8872 109° East 440 506 37,000  Level FlightAware UK
01:10AM 52.8900 -8.8820 109° East 463 533 37,000  Level FlightAware
01:10AM 52.8600 -8.7390 109° East 464 534 37,000  Level FlightAware
01:11AM 52.8266 -8.5851 109° East 448 516 37,000  Level FlightAware UK
01:11AM 52.8270 -8.5880 109° East 465 535 37,000  Level FlightAware
01:12AM 52.7990 -8.4560 109° East 465 535 37,000  Level FlightAware
01:12AM 52.7690 -8.3200 110° East 467 537 37,000  Level FlightAware
01:13AM 52.7387 -8.1803 110° East 454 522 37,000  Level FlightAware UK
01:13AM 52.7360 -8.1710 110° East 466 536 37,000  Level FlightAware
01:14AM 52.7070 -8.0360 109° East 466 536 37,000  Level FlightAware
01:14AM 52.6780 -7.9050 109° East 464 534 37,000  Level FlightAware
01:15AM 52.6727 -7.8809 109° East 448 516 37,000  Level FlightAware UK
01:15AM 52.6504 -7.7815 109° East 446 513 37,000  Level FlightAware UK
01:15AM 52.6470 -7.7700 109° East 462 532 37,000  Level FlightAware
01:16AM 52.6150 -7.6250 110° East 459 528 37,000  Level FlightAware
01:16AM 52.5880 -7.5060 110° East 457 526 37,000  Level FlightAware
01:17AM 52.5620 -7.3902 110° East 444 511 37,000  Level FlightAware UK
01:17AM 52.5550 -7.3610 110° East 455 524 37,000  Level FlightAware
01:18AM 52.5250 -7.2300 111° Southeast 453 521 37,000  Level FlightAware
01:19AM 52.4955 -7.1009 111° Southeast 438 504 37,000  Level FlightAware UK
01:19AM 52.4950 -7.1010 111° Southeast 452 520 37,000  Level FlightAware
01:19AM 52.4630 -6.9620 111° Southeast 451 519 37,000  Level FlightAware
01:20AM 52.4330 -6.8350 111° Southeast 451 519 37,000  Level FlightAware
01:21AM 52.4063 -6.7190 111° Southeast 438 504 37,000  Level FlightAware UK
01:21AM 52.3900 -6.6540 111° Southeast 451 519 37,000  Level FlightAware
01:22AM 52.3615 -6.5286 111° Southeast 438 504 37,000  Level FlightAware UK
01:22AM 52.3560 -6.5100 111° Southeast 451 519 37,000  Level FlightAware
01:22AM 52.3260 -6.3840 111° Southeast 451 519 37,000  Level FlightAware
01:23AM 52.3000 -6.2550 111° Southeast 452 520 37,000  Level FlightAware
01:23AM 52.2973 -6.2408 111° Southeast 442 509 37,000  Level FlightAware UK
01:24AM 52.2796 -6.1422 111° Southeast 444 511 37,000  Level FlightAware UK
01:24AM 52.2780 -6.1320 111° Southeast 449 517 37,000  Level FlightAware
01:25AM 52.2480 -5.9530 105° East 451 519 37,000  Level FlightAware
01:25AM 52.2301 -5.8473 105° East 444 511 37,000  Level FlightAware UK
01:25AM 52.2260 -5.8240 105° East 451 519 37,000  Level FlightAware
01:26AM 52.2020 -5.6820 105° East 451 519 37,000  Level FlightAware
01:26AM 52.1810 -5.5660 106° East 451 519 37,000  Level FlightAware
01:27AM 52.1588 -5.4356 106° East 442 509 37,000  Level FlightAware UK
01:27AM 52.1530 -5.4070 106° East 450 518 37,000  Level FlightAware
01:28AM 52.1300 -5.2760 106° East 450 518 37,000  Level FlightAware
01:29AM 52.1065 -5.1435 106° East 444 511 37,000  Level FlightAware UK
01:29AM 52.1050 -5.1330 106° East 450 518 37,000  Level FlightAware
01:29AM 52.0810 -5.0020 107° East 450 518 37,000  Level FlightAware
01:30AM 52.0550 -4.8580 106° East 450 518 37,000  Level FlightAware
01:31AM 52.0360 -4.7540 107° East 449 517 37,000  Level FlightAware
01:31AM 52.0301 -4.7233 107° East 450 518 37,000  Level FlightAware ADS-B
01:31AM 52.0112 -4.6203 107° East 444 511 37,000  Level FlightAware UK
01:31AM 52.0110 -4.6200 107° East 449 517 37,000  Level FlightAware
01:32AM 51.9850 -4.4820 107° East 449 517 37,000  Level FlightAware
01:33AM 51.9590 -4.3410 107° East 449 517 37,000  Level FlightAware
01:33AM 51.9391 -4.2341 107° East 442 509 37,000  Level FlightAware UK
01:33AM 51.9350 -4.2140 107° East 449 517 37,000  Level FlightAware
01:34AM 51.9100 -4.0830 107° East 448 516 37,000  Level FlightAware
01:35AM 51.8844 -3.9451 107° East 444 511 37,000  Level FlightAware UK
01:35AM 51.8830 -3.9410 107° East 449 517 37,000  Level FlightAware
01:35AM 51.8610 -3.8270 107° East 448 516 37,000  Level FlightAware
01:36AM 51.8360 -3.6960 107° East 448 516 37,000  Level FlightAware
01:37AM 51.8110 -3.5680 107° East 448 516 37,000  Level FlightAware
01:37AM 51.8017 -3.5201 107° East 448 516 37,000  Level FlightAware ADS-B
01:38AM 51.7800 -3.4091 108° East 448 516 37,000  Level FlightAware ADS-B
01:38AM 51.7607 -3.3115 108° East 447 514 37,000  Level FlightAware ADS-B
01:39AM 51.7403 -3.2085 108° East 447 514 37,000  Level FlightAware ADS-B
01:39AM 51.7209 -3.1118 108° East 447 514 37,000  Level FlightAware ADS-B
01:40AM 51.7014 -3.0146 108° East 447 514 37,000  Level FlightAware ADS-B
01:40AM 51.6815 -2.9157 108° East 446 513 37,000  Level FlightAware ADS-B
01:41AM 51.6617 -2.8179 108° East 445 512 37,000  Level FlightAware ADS-B
01:41AM 51.6410 -2.7160 108° East 445 512 37,000  Level FlightAware ADS-B
01:42AM 51.6174 -2.6009 108° East 444 511 37,000  Level FlightAware ADS-B
01:42AM 51.5978 -2.5055 108° East 445 512 37,000  Level FlightAware ADS-B
01:43AM 51.5765 -2.4027 108° East 445 512 37,000  Level FlightAware ADS-B
01:44AM 51.5545 -2.2971 108° East 445 512 37,000  Level FlightAware ADS-B
01:44AM 51.5295 -2.1773 108° East 445 512 37,000  Level FlightAware ADS-B
01:45AM 51.5092 -2.0830 109° East 445 512 37,000  Level FlightAware ADS-B
01:45AM 51.4895 -1.9893 109° East 445 512 37,000  Level FlightAware ADS-B
01:46AM 51.4696 -1.8957 109° East 445 512 37,000  Level FlightAware ADS-B
01:46AM 51.4496 -1.8015 109° East 445 512 37,000  Level FlightAware ADS-B
01:47AM 51.4285 -1.7030 109° East 445 512 37,000  Level FlightAware ADS-B
01:47AM 51.4084 -1.6089 109° East 444 511 37,000  Level FlightAware ADS-B
01:48AM 51.3875 -1.5128 109° East 445 512 37,000  Level FlightAware ADS-B
01:48AM 51.3670 -1.4187 109° East 445 512 37,000  Level FlightAware ADS-B
01:49AM 51.3459 -1.3230 109° East 446 513 37,000  Level FlightAware ADS-B
01:49AM 51.3251 -1.2289 109° East 445 512 37,000  Level FlightAware ADS-B
01:50AM 51.3039 -1.1343 110° East 444 511 37,000  Level FlightAware ADS-B
01:50AM 51.2828 -1.0409 110° East 443 510 37,000  Level FlightAware ADS-B
01:51AM 51.2615 -0.9476 110° East 444 511 37,000  Level FlightAware ADS-B
01:51AM 51.2394 -0.8515 110° East 443 510 37,000  Level FlightAware ADS-B
01:52AM 51.2181 -0.7593 110° East 442 509 37,000  Level FlightAware ADS-B
01:52AM 51.1966 -0.6697 111° Southeast 443 510 37,000  Level FlightAware ADS-B
01:53AM 51.1807 -0.6273 121° Southeast 446 513 37,000  Level FlightAware ADS-B
01:53AM 51.1575 -0.5855 131° Southeast 450 518 37,000  Level FlightAware ADS-B
01:53AM 51.1495 -0.5740 138° Southeast 450 518 37,000  Level FlightAware ADS-B
01:53AM 51.0988 -0.5144 144° Southeast 451 519 37,000  Level FlightAware ADS-B
01:54AM 51.0479 -0.4561 144° Southeast 452 520 37,000  Level FlightAware ADS-B
01:54AM 50.9957 -0.3971 145° Southeast 451 519 37,000  Level FlightAware ADS-B
01:55AM 50.9440 -0.3387 145° Southeast 451 519 37,000  Level FlightAware ADS-B
01:56AM 50.8908 -0.2784 144° Southeast 451 519 37,000  Level FlightAware ADS-B
01:56AM 50.8388 -0.2197 145° Southeast 451 519 37,000  Level FlightAware ADS-B
01:57AM 50.7832 -0.1572 145° Southeast 450 518 37,000  Level FlightAware ADS-B
01:57AM 50.7310 -0.0986 145° Southeast 450 518 37,000  Level FlightAware ADS-B
01:58AM 50.6794 -0.0404 144° Southeast 450 518 37,000  Level FlightAware ADS-B
01:58AM 50.6296 0.0213 142° Southeast 449 517 37,000  Level FlightAware ADS-B
01:59AM 50.5776 0.0906 140° Southeast 447 514 37,000  Level FlightAware ADS-B
01:59AM 50.5289 0.1579 139° Southeast 448 516 37,000  Level FlightAware ADS-B
02:00AM 50.4755 0.2323 138° Southeast 448 516 37,000  Level FlightAware ADS-B
02:00AM 50.4245 0.3036 138° Southeast 448 516 37,000  Level FlightAware ADS-B
02:01AM 50.3766 0.3699 139° Southeast 448 516 37,000  Level FlightAware ADS-B
02:01AM 50.3259 0.4398 139° Southeast 448 516 37,000  Level FlightAware ADS-B
02:02AM 50.2752 0.5093 139° Southeast 449 517 37,000  Level FlightAware ADS-B
02:02AM 50.2244 0.5787 139° Southeast 449 517 37,000  Level FlightAware ADS-B
02:03AM 50.1773 0.6426 139° Southeast 449 517 37,000  Level FlightAware ADS-B
02:04AM 50.0940 0.7550 139° Southeast 450 518 37,000  Level FlightAware
02:04AM 50.0360 0.8330 139° Southeast 450 518 37,000  Level FlightAware
02:05AM 50.0308 0.8402 139° Southeast 440 506 37,000  Level FlightAware UK
02:05AM 49.9742 0.9164 139° Southeast 438 504 37,000  Level FlightAware UK
02:05AM 49.9640 0.9300 139° Southeast 451 519 37,000  Level FlightAware
02:06AM 49.8970 1.0200 139° Southeast 450 518 37,000  Level FlightAware
02:07AM 49.8300 1.1090 139° Southeast 451 519 37,000  Level FlightAware
02:07AM 49.7659 1.1942 139° Southeast 440 506 37,000  Level FlightAware UK
02:07AM 49.7630 1.1970 139° Southeast 452 520 37,000  Level FlightAware
02:08AM 49.7085 1.2700 139° Southeast 440 506 37,000  Level FlightAware UK
02:08AM 49.7090 1.2700 139° Southeast 452 520 37,000 -180 Level FlightAware
02:09AM 49.6514 1.3454 139° Southeast 440 506 36,900  Descending FlightAware UK
02:09AM 49.6380 1.3630 139° Southeast 453 521 37,000 120 Climbing FlightAware
02:09AM 49.5760 1.4450 139° Southeast 453 521 37,000  Level FlightAware
02:10AM 49.5210 1.5160 140° Southeast 454 522 37,000 -120 Level FlightAware
02:10AM 49.4695 1.5839 140° Southeast 436 502 36,900  Descending FlightAware UK
02:11AM 49.4600 1.5960 140° Southeast 454 522 37,000 60 Climbing FlightAware
02:11AM 49.3890 1.7050 135° Southeast 453 521 37,000  Level FlightAware
02:12AM 49.3360 1.7881 135° Southeast 438 504 37,000  Level FlightAware UK
02:12AM 49.3270 1.8020 135° Southeast 453 521 37,000  Level FlightAware
02:13AM 49.2620 1.9020 135° Southeast 453 521 37,000  Level FlightAware
02:13AM 49.2060 1.9880 135° Southeast 454 522 37,000  Level FlightAware
02:13AM 49.2031 1.9929 135° Southeast 434 499 37,000  Level FlightAware UK
02:14AM 49.1592 2.0619 135° Southeast 436 502 37,000  Level FlightAware UK
02:14AM 49.1480 2.0790 135° Southeast 454 522 37,000  Level FlightAware
02:15AM 49.0974 2.1588 135° Southeast 438 504 37,000  Level FlightAware UK
02:15AM 49.0820 2.1810 135° Southeast 456 525 37,000  Level FlightAware
02:15AM 49.0270 2.2660 135° Southeast 456 525 37,000  Level FlightAware
02:16AM 48.9580 2.3740 135° Southeast 456 525 37,000  Level FlightAware
02:16AM 48.9552 2.3772 135° Southeast 1 1 37,000  Level FlightAware UK
02:17AM 48.8950 2.4710 135° Southeast 456 525 37,000  Level FlightAware
02:18AM 48.8320 2.5680 135° Southeast 457 526 37,000  Level FlightAware
02:18AM 48.7730 2.6610 134° Southeast 457 526 37,000  Level FlightAware
02:19AM 48.7120 2.7560 134° Southeast 457 526 37,000  Level FlightAware
02:20AM 48.6540 2.8450 135° Southeast 458 527 37,000  Level FlightAware
02:20AM 48.6050 2.9680 121° Southeast 450 518 37,000  Level FlightAware
02:21AM 48.5920 3.0840 100° East 447 514 37,000  Level FlightAware
02:22AM 48.5800 3.2160 98° East 447 514 37,000  Level FlightAware
02:22AM 48.5680 3.3480 98° East 448 516 37,000  Level FlightAware
02:23AM 48.5570 3.4780 97° East 449 517 37,000  Level FlightAware
02:24AM 48.5460 3.5920 98° East 451 519 37,000  Level FlightAware
02:25AM 48.5310 3.7450 98° East 450 518 37,000  Level FlightAware
02:25AM 48.5200 3.8660 98° East 450 518 37,000  Level FlightAware
02:26AM 48.5070 3.9950 99° East 450 518 37,000  Level FlightAware
02:27AM 48.4790 4.1350 107° East 455 524 37,000  Level FlightAware
02:27AM 48.4570 4.2300 109° East 453 521 37,000  Level FlightAware
02:28AM 48.4240 4.3690 110° East 452 520 37,000 -360 Level FlightAware
02:29AM 48.3980 4.4770 110° East 452 520 36,600 -1,200 Descending FlightAware
02:29AM 48.3660 4.6110 110° East 455 524 35,500 -1,260 Descending FlightAware
02:30AM 48.3350 4.7430 109° East 455 524 34,800 -960 Descending FlightAware
02:31AM 48.3030 4.8760 110° East 453 521 34,000 -1,020 Descending FlightAware
02:32AM 48.2740 4.9950 110° East 466 536 33,400 -1,020 Descending FlightAware
02:32AM 48.2370 5.1470 110° East 470 541 32,600 -1,020 Descending FlightAware
02:33AM 48.2110 5.2560 110° East 464 534 32,000 -900 Descending FlightAware
02:34AM 48.1830 5.3690 110° East 458 527 31,400 -720 Descending FlightAware
02:34AM 48.1550 5.4830 110° East 452 520 31,000 -300 Descending FlightAware
02:35AM 48.1240 5.6090 110° East 454 522 31,000  Level FlightAware
02:36AM 48.0900 5.7440 111° Southeast 458 527 31,000  Level FlightAware
02:36AM 48.0580 5.8710 111° Southeast 460 529 31,000  Level FlightAware
02:37AM 48.0300 5.9810 111° Southeast 462 532 31,000  Level FlightAware
02:38AM 47.9790 6.1840 111° Southeast 464 534 31,000  Level FlightAware
02:39AM 47.9510 6.2900 111° Southeast 464 534 31,000  Level FlightAware
02:40AM 47.9090 6.4540 111° Southeast 462 532 31,000 -240 Level FlightAware
02:40AM 47.8760 6.5820 111° Southeast 460 529 30,700 -1,260 Descending FlightAware
02:41AM 47.8470 6.6950 111° Southeast 452 520 29,300 -2,040 Descending FlightAware
02:42AM 47.8180 6.8040 112° Southeast 444 511 28,000 -2,160 Descending FlightAware
02:43AM 47.7820 6.9400 111° Southeast 435 501 26,200 -2,280 Descending FlightAware
02:43AM 47.7530 7.0500 111° Southeast 425 489 24,800 -2,160 Descending FlightAware
02:44AM 47.7200 7.1730 112° Southeast 414 476 23,200 -2,700 Descending FlightAware
02:45AM 47.6920 7.2780 112° Southeast 426 490 21,000 -2,940 Descending FlightAware
02:45AM 47.6630 7.3880 111° Southeast 418 481 19,300 -2,400 Descending FlightAware
02:46AM 47.6320 7.5040 112° Southeast 407 468 17,600 -2,340 Descending FlightAware
02:47AM 47.6070 7.6080 110° East 395 455 16,100 -2,340 Descending FlightAware
02:47AM 47.5810 7.7210 109° East 390 449 14,300 -2,400 Descending FlightAware
02:48AM 47.5590 7.8210 108° East 381 438 12,700 -1,860 Descending FlightAware
02:49AM 47.5390 7.9110 108° East 380 437 12,000 -1,440 Descending FlightAware
02:50AM 47.5100 8.0410 108° East 365 420 10,600 -1,320 Descending FlightAware
02:50AM 47.4900 8.1290 109° East 335 386 10,000 -600 Descending FlightAware
02:51AM 47.4800 8.1750 108° East 316 364 10,000 -540 Level FlightAware
02:51AM 47.4620 8.2560 108° East 295 339 9,500 -840 Descending FlightAware
02:52AM 47.4520 8.3000 109° East 279 321 9,200 -600 Descending FlightAware
02:52AM 47.4400 8.3530 108° East 262 302 9,000 -240 Descending FlightAware
02:53AM 47.4200 8.3940 126° Southeast 251 289 9,000  Level FlightAware
02:53AM 47.3890 8.4210 149° Southeast 253 291 9,000  Level FlightAware
02:53AM 47.3680 8.4400 148° Southeast 253 291 9,000  Level FlightAware
02:54AM 47.3430 8.4630 148° Southeast 255 293 9,000  Level FlightAware
02:54AM 47.3120 8.4930 147° Southeast 254 292 9,000 -480 Level FlightAware
02:55AM 47.2860 8.5160 149° Southeast 249 287 8,600 -780 Descending FlightAware
02:55AM 47.2580 8.5420 148° Southeast 235 270 8,300 -840 Descending FlightAware
02:56AM 47.2360 8.5630 147° Southeast 214 246 7,900 -780 Descending FlightAware
02:56AM 47.2110 8.5880 146° Southeast 205 236 7,600 -720 Descending FlightAware
02:56AM 47.2060 8.6040 115° Southeast 204 235 7,400 -960 Descending FlightAware
02:57AM 47.2110 8.6390 78° East 206 237 7,000 -780 Descending FlightAware
02:57AM 47.2240 8.6760 63° Northeast 207 238 6,700 -840 Descending FlightAware
02:58AM 47.2370 8.6840 23° Northeast 193 222 6,400 -1,080 Descending FlightAware
02:58AM 47.2620 8.6810 355° North 187 215 5,900 -960 Descending FlightAware
02:58AM 47.2770 8.6720 338° Northwest 193 222 5,600 -840 Descending FlightAware
02:59AM 47.3010 8.6560 336° Northwest 176 203 5,200 -900 Descending FlightAware
02:59AM 47.3220 8.6420 336° Northwest 167 192 4,700 -540 Descending FlightAware
03:00AM 47.3380 8.6300 333° Northwest 167 192 4,700 -1,260 Level FlightAware
03:01AM 47.3810 8.6010 335° Northwest 157 181 2,800 -1,560 Descending FlightAware
03:02AM 47.4060 8.5840 335° Northwest 149 171 2,200 -1,020 Descending FlightAware
03:02AM 47.4240 8.5710 334° Northwest 146 168 1,800 -840 Descending FlightAware
03:02AM 47.4370 8.5620 335° Northwest 144 166 1,500 -720 Descending FlightAware
03:03AM 47.4470 8.5560 338° Northwest 143 165 1,300 -600 Descending FlightAware
03:04AM 47.4700 8.5410 336° Northwest 123 142 -1,140 Descending FlightAware
03:05AM 47.4690 8.5430 126° Southeast 123 142  Level FlightAware
03:05AM 47.4670 8.5470 126° Southeast 123 142  Level FlightAware
03:06AM 47.4750 8.5620 52° Northeast 123 142  Level FlightAware
03:06AM 47.4650 8.5480 223° Southwest 123 142  Level FlightAware
03:06AM 47.4630 8.5490 161° South 123 142  Level FlightAware
03:07AM 47.4610 8.5500 161° South 123 142  Level FlightAware
03:07AM 47.4600 8.5520 126° Southeast 123 142  Level FlightAware
03:08AM 47.4600 8.5540 90° East 123 142  Level FlightAware
03:08AM 47.4600 8.5560 90° East 123 142  Level FlightAware
03:09AM 47.4730 8.5610 15° North 123 142  Level FlightAware
03:12AM 47.4647 8.5492 126° Southeast  Level Estimated